createdAt,value
2023-03-17T00:02:25.773Z,3006.16986
2023-03-17T00:17:27.655Z,2981.09063
2023-03-17T00:32:29.621Z,3014.62366
2023-03-17T00:47:31.587Z,3018.0185
2023-03-17T01:02:33.498Z,3023.12513
2023-03-17T01:17:35.426Z,3045.45503
2023-03-17T01:32:37.297Z,3028.24907
2023-03-17T01:47:39.229Z,3026.53916
2023-03-17T02:02:41.219Z,3031.67469
2023-03-17T02:17:43.148Z,3084.00509
2023-03-17T02:32:45.212Z,3103.64843
2023-03-17T02:47:47.224Z,3127.18835
2023-03-17T03:02:49.177Z,3091.11928
2023-03-17T03:17:51.116Z,3100.05832
2023-03-17T03:32:53.106Z,3107.24686
2023-03-17T03:47:55.063Z,3096.47651
2023-03-17T04:02:57.145Z,3134.50341
2023-03-17T04:17:59.141Z,3147.38745
2023-03-17T04:33:01.187Z,3228.91615
2023-03-17T04:48:03.245Z,3254.40243
2023-03-17T05:03:11.197Z,3266.30152
2023-03-17T05:18:18.659Z,3280.29424
2023-03-17T05:33:20.592Z,3127.18835
2023-03-17T05:48:22.670Z,3085.78056
2023-03-17T06:03:24.715Z,3050.65501
2023-03-17T06:18:26.933Z,3076.92356
2023-03-17T06:33:28.893Z,3098.26638
2023-03-17T06:48:30.821Z,3109.04921
2023-03-17T07:03:32.637Z,3156.65537
2023-03-17T07:18:34.626Z,3064.60883
2023-03-17T07:33:37.912Z,3156.65537
2023-03-17T07:48:39.894Z,3165.97804
2023-03-17T08:03:42.042Z,3152.94166
2023-03-17T08:18:44.101Z,3234.7621
2023-03-17T08:33:46.117Z,3160.37784
2023-03-17T08:48:48.059Z,3203.82595
2023-03-17T09:03:50.023Z,3278.28795
2023-03-17T09:18:52.050Z,3114.46882
2023-03-17T09:33:54.166Z,3182.89835
2023-03-17T09:48:56.061Z,3087.55809
2023-03-17T10:03:57.966Z,3045.45503
2023-03-17T10:18:59.907Z,3127.18835
2023-03-17T10:34:01.912Z,2941.8227
2023-03-17T10:49:03.791Z,3041.99821
2023-03-17T11:04:05.729Z,3073.39498
2023-03-17T11:19:07.670Z,2967.88536
2023-03-17T11:34:09.566Z,3059.36121
2023-03-17T11:49:11.519Z,2964.6023
2023-03-17T12:04:13.413Z,3069.87448
2023-03-17T12:19:15.400Z,3143.6955
2023-03-17T12:34:17.306Z,3052.39228
2023-03-17T12:49:19.252Z,3156.65537
2023-03-17T13:04:21.282Z,3041.99821
2023-03-17T13:19:23.246Z,3094.68871
2023-03-17T13:34:25.164Z,3068.11726
2023-03-17T13:49:27.170Z,3094.68871
2023-03-17T14:04:29.147Z,3062.85763
2023-03-17T14:19:31.128Z,3057.616
2023-03-17T14:34:33.047Z,2964.6023
2023-03-17T14:49:35.004Z,2971.1757
2023-03-17T15:04:36.932Z,2938.59702
2023-03-17T15:19:38.858Z,2848.03453
2023-03-17T15:34:40.758Z,2460.97388
2023-03-17T15:49:42.632Z,2401.4342
2023-03-17T16:04:44.528Z,2367.49168
2023-03-17T16:19:46.428Z,2418.77307
2023-03-17T16:34:48.336Z,2429.73759
2023-03-17T16:49:50.250Z,2514.07181
2023-03-17T17:04:52.209Z,2545.10973
2023-03-17T17:19:54.088Z,2612.08629
2023-03-17T17:34:55.970Z,2637.79579
2023-03-17T17:49:57.880Z,2682.6832
2023-03-17T18:04:59.792Z,2642.99855
2023-03-17T18:20:01.703Z,2627.4515
2023-03-17T19:35:58.578Z,2715.29941
2023-03-17T19:51:00.610Z,2696.17758
2023-03-17T20:06:02.555Z,2734.6944
2023-03-17T20:21:04.495Z,2780.08351
2023-03-17T20:36:06.470Z,2791.66719
2023-03-17T20:51:08.703Z,2712.55113
2023-03-17T21:06:10.672Z,2586.8731
2023-03-17T21:21:12.614Z,2495.34502
2023-03-17T21:36:14.512Z,2493.02377
2023-03-17T21:51:16.497Z,2530.68984
2023-03-17T22:06:18.433Z,2589.3725
2023-03-17T22:21:20.344Z,2607.00441
2023-03-17T22:36:22.275Z,2642.99855
2023-03-17T22:51:24.158Z,2671.98457
2023-03-17T23:06:26.130Z,2661.37093
2023-03-17T23:21:28.042Z,2579.40379
2023-03-17T23:36:29.976Z,2486.08586
2023-03-17T23:51:32.030Z,2440.80197
